Time;durP1;ratioP1;P1;durP2;ratioP2;P2;SDS_P1;SDS_P2;PMS_P1;PMS_P2;Temp;Humidity;BMP_temperature;BMP_pressure;BME280_temperature;BME280_humidity;BME280_pressure;Samples;Min_cycle;Max_cycle;Signal;HPM_P1;HPM_P2
2021/07/28 00:00:55;;;;;;;10.57;8.90;;;;;;;;;;4972428;28;20199;-78
2021/07/28 00:03:22;;;;;;;11.48;8.93;;;;;;;;;;4956571;28;20226;-78
2021/07/28 00:05:48;;;;;;;10.97;8.93;;;;;;;;;;4977008;28;20241;-78
2021/07/28 00:08:16;;;;;;;9.80;8.80;;;;;;;;;;4975925;28;20266;-78
2021/07/28 00:10:43;;;;;;;10.40;9.27;;;;;;;;;;4977184;28;20253;-78
2021/07/28 00:13:10;;;;;;;11.55;9.75;;;;;;;;;;4977380;28;20183;-79
2021/07/28 00:15:36;;;;;;;10.53;8.47;;;;;;;;;;4977126;28;20241;-81
2021/07/28 00:18:11;;;;;;;10.90;9.57;;;;;;;;;;4959899;28;20207;-81
2021/07/28 00:23:20;;;;;;;12.13;9.07;;;;;;;;;;4958728;28;20258;-80
2021/07/28 00:25:48;;;;;;;10.77;9.50;;;;;;;;;;4975708;28;20241;-79
2021/07/28 00:28:15;;;;;;;13.57;9.47;;;;;;;;;;4975862;28;20230;-80
2021/07/28 00:30:41;;;;;;;10.63;9.50;;;;;;;;;;4975501;28;20186;-79
2021/07/28 00:33:08;;;;;;;10.57;9.33;;;;;;;;;;4976552;28;20242;-79
2021/07/28 00:35:35;;;;;;;10.67;9.57;;;;;;;;;;4975607;28;20566;-80
2021/07/28 00:38:05;;;;;;;10.50;9.40;;;;;;;;;;4959433;28;20206;-81
2021/07/28 00:40:33;;;;;;;11.50;10.30;;;;;;;;;;4976627;28;20242;-81
2021/07/28 00:43:13;;;;;;;15.30;9.63;;;;;;;;;;4976899;28;20659;-80
2021/07/28 00:45:40;;;;;;;10.77;9.67;;;;;;;;;;4974804;28;20449;-79
2021/07/28 00:48:07;;;;;;;12.73;9.07;;;;;;;;;;4985159;28;20263;-79
2021/07/28 00:50:35;;;;;;;10.00;8.80;;;;;;;;;;4978347;28;20221;-79
2021/07/28 00:53:02;;;;;;;9.93;8.60;;;;;;;;;;4995659;28;20210;-80
2021/07/28 00:55:30;;;;;;;9.70;8.70;;;;;;;;;;4978371;28;20248;-79
2021/07/28 00:57:59;;;;;;;9.90;8.10;;;;;;;;;;4978414;28;20202;-79
2021/07/28 01:00:25;;;;;;;9.93;8.93;;;;;;;;;;4978000;28;20252;-79
2021/07/28 01:02:52;;;;;;;8.97;8.10;;;;;;;;;;4995488;28;20231;-79
2021/07/28 01:05:19;;;;;;;11.77;7.63;;;;;;;;;;4977601;28;20233;-79
2021/07/28 01:07:45;;;;;;;8.80;8.00;;;;;;;;;;4994293;28;20193;-79
2021/07/28 01:10:12;;;;;;;10.10;7.20;;;;;;;;;;4995040;28;20240;-79
2021/07/28 01:12:43;;;;;;;8.82;7.65;;;;;;;;;;4978115;28;20194;-79
2021/07/28 01:15:12;;;;;;;10.10;7.20;;;;;;;;;;4995352;28;20213;-79
2021/07/28 01:17:39;;;;;;;8.70;7.23;;;;;;;;;;4977885;28;20245;-79
2021/07/28 01:20:08;;;;;;;10.17;7.60;;;;;;;;;;4977556;28;20209;-79
2021/07/28 01:22:35;;;;;;;8.93;6.70;;;;;;;;;;4977744;28;20206;-79
2021/07/28 01:25:03;;;;;;;8.17;7.27;;;;;;;;;;4995620;28;20587;-80
2021/07/28 01:27:31;;;;;;;7.50;6.57;;;;;;;;;;4977508;28;20245;-78
2021/07/28 01:29:57;;;;;;;6.77;6.17;;;;;;;;;;4993980;28;20280;-78
2021/07/28 01:32:24;;;;;;;7.87;7.10;;;;;;;;;;4995155;28;20566;-79
2021/07/28 01:34:53;;;;;;;7.90;6.50;;;;;;;;;;4994872;28;20217;-80
2021/07/28 01:37:20;;;;;;;10.73;7.30;;;;;;;;;;4977572;28;20573;-78
2021/07/28 01:39:47;;;;;;;10.73;6.63;;;;;;;;;;4977603;28;20533;-78
2021/07/28 01:42:15;;;;;;;8.67;6.70;;;;;;;;;;4977220;28;20658;-79
2021/07/28 01:44:43;;;;;;;6.73;6.13;;;;;;;;;;4977591;28;20766;-78
2021/07/28 01:47:10;;;;;;;6.90;6.20;;;;;;;;;;4976734;28;20249;-78
2021/07/28 01:49:36;;;;;;;6.47;5.87;;;;;;;;;;4977243;28;20221;-79
2021/07/28 01:52:03;;;;;;;6.43;5.90;;;;;;;;;;4977426;28;20218;-78
2021/07/28 01:54:30;;;;;;;7.40;6.30;;;;;;;;;;4977471;28;20217;-78
2021/07/28 01:56:56;;;;;;;9.00;6.50;;;;;;;;;;4976963;28;20201;-78
2021/07/28 01:59:25;;;;;;;7.67;6.37;;;;;;;;;;4977126;28;20560;-78
2021/07/28 02:01:52;;;;;;;7.17;6.57;;;;;;;;;;4977003;28;20210;-78
2021/07/28 02:04:19;;;;;;;9.80;6.53;;;;;;;;;;4976923;28;20206;-78
2021/07/28 02:06:45;;;;;;;9.07;6.50;;;;;;;;;;4976936;28;20299;-79
2021/07/28 02:09:12;;;;;;;7.20;6.40;;;;;;;;;;4994126;28;20233;-78
2021/07/28 02:11:39;;;;;;;7.23;6.13;;;;;;;;;;4976515;28;20205;-78
2021/07/28 02:14:05;;;;;;;7.20;6.60;;;;;;;;;;4976760;28;20557;-78
2021/07/28 02:16:33;;;;;;;7.20;6.50;;;;;;;;;;4976361;28;20206;-78
2021/07/28 02:19:00;;;;;;;7.97;6.87;;;;;;;;;;4976589;28;20248;-78
2021/07/28 02:21:27;;;;;;;7.67;6.87;;;;;;;;;;4994208;28;20229;-78
2021/07/28 02:23:53;;;;;;;9.50;6.90;;;;;;;;;;4976761;28;20225;-79
2021/07/28 02:26:20;;;;;;;7.17;6.43;;;;;;;;;;4976592;28;20237;-79
2021/07/28 02:28:47;;;;;;;6.87;6.27;;;;;;;;;;4993497;28;20193;-78
2021/07/28 02:31:13;;;;;;;9.50;6.00;;;;;;;;;;4993686;28;20252;-78
2021/07/28 02:33:41;;;;;;;7.70;6.50;;;;;;;;;;4976332;28;20198;-78
2021/07/28 02:36:08;;;;;;;7.80;7.00;;;;;;;;;;4992849;28;20205;-80
2021/07/28 02:38:36;;;;;;;8.50;6.70;;;;;;;;;;4994170;28;20183;-79
2021/07/28 02:41:03;;;;;;;6.37;5.77;;;;;;;;;;4994068;28;20201;-80
2021/07/28 02:43:30;;;;;;;6.23;5.63;;;;;;;;;;4976475;28;20674;-78
2021/07/28 02:45:56;;;;;;;10.07;6.30;;;;;;;;;;4976245;28;20202;-77
2021/07/28 02:48:23;;;;;;;6.63;6.07;;;;;;;;;;4965430;28;20780;-78
2021/07/28 02:50:51;;;;;;;9.13;5.63;;;;;;;;;;4974454;28;20230;-78
2021/07/28 02:53:20;;;;;;;7.90;6.17;;;;;;;;;;4957105;28;20234;-78
2021/07/28 02:55:47;;;;;;;9.23;6.40;;;;;;;;;;4957139;28;20257;-78
2021/07/28 02:58:14;;;;;;;8.73;6.67;;;;;;;;;;4974367;28;20210;-78
2021/07/28 03:00:40;;;;;;;11.63;6.87;;;;;;;;;;4957024;28;20221;-79
2021/07/28 03:03:08;;;;;;;9.07;6.83;;;;;;;;;;4973101;28;20229;-80
2021/07/28 03:05:35;;;;;;;9.70;6.13;;;;;;;;;;4972911;28;20671;-78
2021/07/28 03:08:03;;;;;;;13.30;8.50;;;;;;;;;;4974394;28;20229;-79
2021/07/28 03:10:30;;;;;;;12.93;8.37;;;;;;;;;;4956900;28;20230;-81
2021/07/28 03:12:57;;;;;;;8.67;7.70;;;;;;;;;;4973715;28;20243;-78
2021/07/28 03:15:23;;;;;;;7.73;6.93;;;;;;;;;;4973158;28;20249;-80
2021/07/28 03:17:50;;;;;;;7.33;6.30;;;;;;;;;;4974494;28;20222;-79
2021/07/28 03:20:17;;;;;;;6.93;6.30;;;;;;;;;;4974116;28;20217;-80
2021/07/28 03:22:43;;;;;;;6.10;5.57;;;;;;;;;;4974121;28;20631;-80
2021/07/28 03:25:12;;;;;;;6.80;6.20;;;;;;;;;;4974516;28;20550;-78
2021/07/28 03:27:39;;;;;;;6.60;6.00;;;;;;;;;;4956489;28;20238;-80
2021/07/28 03:30:06;;;;;;;6.90;6.10;;;;;;;;;;4972917;28;20206;-80
2021/07/28 03:32:33;;;;;;;8.07;6.37;;;;;;;;;;4956600;28;20207;-80
2021/07/28 03:35:00;;;;;;;6.80;6.20;;;;;;;;;;4957437;28;20267;-80
2021/07/28 03:37:29;;;;;;;7.50;6.73;;;;;;;;;;4956473;28;20206;-79
2021/07/28 03:40:01;;;;;;;8.17;7.20;;;;;;;;;;4975208;28;20199;-80
2021/07/28 03:42:30;;;;;;;8.30;6.50;;;;;;;;;;4960459;28;20206;-78
2021/07/28 03:44:56;;;;;;;7.30;6.60;;;;;;;;;;4977738;28;20248;-79
2021/07/28 03:47:23;;;;;;;6.27;5.77;;;;;;;;;;4962712;28;20277;-79
2021/07/28 03:49:50;;;;;;;6.80;6.27;;;;;;;;;;4996982;28;20752;-79
2021/07/28 03:52:16;;;;;;;9.10;6.37;;;;;;;;;;4997174;28;20218;-80
2021/07/28 03:54:44;;;;;;;6.80;6.10;;;;;;;;;;4979238;28;20221;-80
2021/07/28 03:57:10;;;;;;;7.13;6.43;;;;;;;;;;4979662;28;20193;-80
2021/07/28 03:59:38;;;;;;;7.70;6.70;;;;;;;;;;4979114;28;20666;-80
2021/07/28 04:02:05;;;;;;;7.27;6.67;;;;;;;;;;4979539;28;20194;-77
2021/07/28 04:04:32;;;;;;;8.93;6.77;;;;;;;;;;4995703;28;20194;-80
2021/07/28 04:06:59;;;;;;;9.87;7.10;;;;;;;;;;4996901;28;20230;-79
2021/07/28 04:09:26;;;;;;;10.30;6.63;;;;;;;;;;4996928;28;20541;-79
2021/07/28 04:11:52;;;;;;;9.70;6.73;;;;;;;;;;4996663;28;20252;-79
2021/07/28 04:14:19;;;;;;;8.27;6.60;;;;;;;;;;4979342;28;20241;-80
2021/07/28 04:16:47;;;;;;;8.70;7.10;;;;;;;;;;4979042;28;20190;-82
2021/07/28 04:19:14;;;;;;;8.03;7.23;;;;;;;;;;4996851;28;20205;-80
2021/07/28 04:21:41;;;;;;;7.30;6.30;;;;;;;;;;4996501;28;20214;-80
2021/07/28 04:24:08;;;;;;;6.77;6.27;;;;;;;;;;4996632;28;20555;-80
2021/07/28 04:26:35;;;;;;;7.23;6.50;;;;;;;;;;4996303;28;20237;-80
2021/07/28 04:29:02;;;;;;;6.87;6.17;;;;;;;;;;4978839;28;20225;-79
2021/07/28 04:31:29;;;;;;;9.70;6.53;;;;;;;;;;4996657;28;20684;-80
2021/07/28 04:33:57;;;;;;;7.00;6.40;;;;;;;;;;4979255;28;20221;-79
2021/07/28 04:36:24;;;;;;;8.07;5.87;;;;;;;;;;4979014;28;20635;-80
2021/07/28 04:38:51;;;;;;;8.73;6.07;;;;;;;;;;4978675;28;20265;-79
2021/07/28 04:41:18;;;;;;;11.47;6.87;;;;;;;;;;4978916;28;20662;-79
2021/07/28 04:43:44;;;;;;;7.03;6.33;;;;;;;;;;4978852;28;20206;-79
2021/07/28 04:46:11;;;;;;;6.27;5.60;;;;;;;;;;4998591;28;20213;-80
2021/07/28 04:48:38;;;;;;;6.57;5.70;;;;;;;;;;4997844;28;20279;-79
2021/07/28 04:51:07;;;;;;;7.97;6.30;;;;;;;;;;4997265;28;20588;-80
2021/07/28 04:53:34;;;;;;;6.77;6.10;;;;;;;;;;4986998;28;20264;-79
2021/07/28 04:56:01;;;;;;;6.60;6.10;;;;;;;;;;4996101;28;20647;-80
2021/07/28 04:58:28;;;;;;;6.67;6.07;;;;;;;;;;4978471;28;20276;-78
2021/07/28 05:00:55;;;;;;;6.90;6.20;;;;;;;;;;4996051;28;20580;-78
2021/07/28 05:03:24;;;;;;;7.90;6.00;;;;;;;;;;4995910;28;20178;-80
2021/07/28 05:05:51;;;;;;;10.87;6.13;;;;;;;;;;4978420;28;20221;-80
2021/07/28 05:08:19;;;;;;;8.97;6.20;;;;;;;;;;4978831;28;20261;-79
2021/07/28 05:10:47;;;;;;;6.40;5.87;;;;;;;;;;4978116;28;20198;-80
2021/07/28 05:13:14;;;;;;;6.73;6.00;;;;;;;;;;4981065;28;20200;-79
2021/07/28 05:15:40;;;;;;;7.40;6.60;;;;;;;;;;4997721;28;20201;-79
2021/07/28 05:18:07;;;;;;;7.50;6.47;;;;;;;;;;5015325;28;20243;-79
2021/07/28 05:20:34;;;;;;;7.10;6.40;;;;;;;;;;4997228;28;20243;-79
2021/07/28 05:23:01;;;;;;;8.43;6.20;;;;;;;;;;5015196;28;20208;-79
2021/07/28 05:25:31;;;;;;;6.93;6.33;;;;;;;;;;5014668;28;20275;-79
2021/07/28 05:27:58;;;;;;;9.17;6.43;;;;;;;;;;5014969;28;20225;-79
2021/07/28 05:30:27;;;;;;;6.90;6.30;;;;;;;;;;4996284;28;20245;-79
2021/07/28 05:32:54;;;;;;;7.73;6.93;;;;;;;;;;4961418;28;20229;-79
2021/07/28 05:35:22;;;;;;;7.30;6.60;;;;;;;;;;4995461;28;20212;-79
2021/07/28 05:37:49;;;;;;;7.67;6.80;;;;;;;;;;4994965;28;20229;-78
2021/07/28 05:40:16;;;;;;;9.07;6.20;;;;;;;;;;4995080;28;20220;-78
2021/07/28 05:42:45;;;;;;;10.93;7.17;;;;;;;;;;4977650;28;20205;-80
2021/07/28 05:45:12;;;;;;;8.00;6.60;;;;;;;;;;4995331;28;20685;-79
2021/07/28 05:47:38;;;;;;;8.57;7.10;;;;;;;;;;4977616;28;20284;-77
2021/07/28 05:50:06;;;;;;;10.50;7.33;;;;;;;;;;4994994;28;20260;-80
2021/07/28 05:52:33;;;;;;;7.90;7.10;;;;;;;;;;4977426;28;20233;-79
2021/07/28 05:55:02;;;;;;;7.50;6.80;;;;;;;;;;4977032;28;20197;-77
2021/07/28 05:57:28;;;;;;;8.50;7.63;;;;;;;;;;4977117;28;20564;-78
2021/07/28 05:59:56;;;;;;;10.07;6.83;;;;;;;;;;4977411;28;20194;-80
2021/07/28 06:02:23;;;;;;;7.37;6.60;;;;;;;;;;4977021;28;20711;-78
2021/07/28 06:04:52;;;;;;;7.70;7.00;;;;;;;;;;4977118;28;20206;-78
2021/07/28 06:07:20;;;;;;;7.93;7.20;;;;;;;;;;4994557;28;20578;-78
2021/07/28 06:09:46;;;;;;;10.83;6.80;;;;;;;;;;4994570;28;20178;-78
2021/07/28 06:12:16;;;;;;;8.93;7.87;;;;;;;;;;4977179;28;20654;-80
2021/07/28 06:14:43;;;;;;;8.57;7.37;;;;;;;;;;4994479;28;20221;-78
2021/07/28 06:17:11;;;;;;;8.33;7.37;;;;;;;;;;4976670;28;20201;-78
2021/07/28 06:19:38;;;;;;;8.43;7.67;;;;;;;;;;4977221;28;20190;-78
2021/07/28 06:22:05;;;;;;;8.90;7.50;;;;;;;;;;4994635;28;20206;-78
2021/07/28 06:24:32;;;;;;;10.63;7.53;;;;;;;;;;4976469;28;20210;-78
2021/07/28 06:26:58;;;;;;;8.60;7.30;;;;;;;;;;4994126;28;20210;-78
2021/07/28 06:29:27;;;;;;;11.37;7.70;;;;;;;;;;4976376;28;20771;-78
2021/07/28 06:31:53;;;;;;;8.70;7.23;;;;;;;;;;4994261;28;20186;-79
2021/07/28 06:34:22;;;;;;;9.80;7.10;;;;;;;;;;4976902;28;20601;-77
2021/07/28 06:36:48;;;;;;;8.57;7.40;;;;;;;;;;4993500;28;20244;-77
2021/07/28 06:39:15;;;;;;;11.57;7.90;;;;;;;;;;4976729;28;20217;-78
2021/07/28 06:41:42;;;;;;;7.80;7.00;;;;;;;;;;4993986;28;20242;-80
2021/07/28 06:44:08;;;;;;;9.07;7.20;;;;;;;;;;4993590;28;20244;-78
2021/07/28 06:46:35;;;;;;;7.27;6.57;;;;;;;;;;4976657;28;20244;-78
2021/07/28 06:49:02;;;;;;;9.47;7.10;;;;;;;;;;4976472;28;20721;-78
2021/07/28 06:51:33;;;;;;;7.13;6.60;;;;;;;;;;4976519;28;20225;-78
2021/07/28 06:53:59;;;;;;;6.80;6.20;;;;;;;;;;4976461;28;20244;-78
2021/07/28 06:56:26;;;;;;;8.03;7.13;;;;;;;;;;4976287;28;20682;-78
2021/07/28 06:58:53;;;;;;;8.63;7.50;;;;;;;;;;4976281;28;20561;-77
2021/07/28 07:01:20;;;;;;;8.03;7.23;;;;;;;;;;4993585;28;20678;-78
2021/07/28 07:03:47;;;;;;;8.07;7.27;;;;;;;;;;4993116;28;20236;-78
2021/07/28 07:06:14;;;;;;;8.73;7.90;;;;;;;;;;4976566;28;20767;-77
2021/07/28 07:08:42;;;;;;;7.90;7.00;;;;;;;;;;4994099;28;20332;-77
2021/07/28 07:11:10;;;;;;;11.00;7.87;;;;;;;;;;4993928;28;20174;-78
2021/07/28 07:13:36;;;;;;;10.23;8.40;;;;;;;;;;4975568;28;20194;-78
2021/07/28 07:16:04;;;;;;;11.90;9.13;;;;;;;;;;4993786;28;20182;-80
2021/07/28 07:18:31;;;;;;;9.43;7.70;;;;;;;;;;4994262;28;20217;-79
2021/07/28 07:20:58;;;;;;;9.27;8.03;;;;;;;;;;4993124;28;20210;-79
2021/07/28 07:23:25;;;;;;;9.30;8.40;;;;;;;;;;4993915;28;20190;-78
2021/07/28 07:25:58;;;;;;;9.13;8.17;;;;;;;;;;4993461;28;20268;-79
2021/07/28 07:28:25;;;;;;;8.63;7.83;;;;;;;;;;4975719;28;20249;-80
2021/07/28 07:30:51;;;;;;;9.63;7.40;;;;;;;;;;4993007;28;20245;-79
2021/07/28 07:36:03;;;;;;;8.40;7.70;;;;;;;;;;4976172;28;20557;-79
2021/07/28 07:38:29;;;;;;;12.87;7.93;;;;;;;;;;4975965;28;20241;-81
2021/07/28 07:41:01;;;;;;;12.13;8.73;;;;;;;;;;4975974;28;20198;-80
2021/07/28 07:43:28;;;;;;;8.83;8.03;;;;;;;;;;4976098;28;20284;-80
2021/07/28 07:45:56;;;;;;;10.67;8.93;;;;;;;;;;4975892;28;20209;-80
2021/07/28 07:48:23;;;;;;;9.83;8.33;;;;;;;;;;4975362;28;20226;-80
2021/07/28 07:50:51;;;;;;;9.20;8.30;;;;;;;;;;4976058;28;20280;-80
2021/07/28 07:53:17;;;;;;;8.90;8.03;;;;;;;;;;4992927;28;20205;-80
2021/07/28 07:55:44;;;;;;;10.53;8.93;;;;;;;;;;4976091;28;20245;-80
2021/07/28 07:58:12;;;;;;;9.93;8.90;;;;;;;;;;4993374;28;20225;-79
2021/07/28 08:00:39;;;;;;;9.53;8.60;;;;;;;;;;4992760;28;20221;-78
2021/07/28 08:03:06;;;;;;;9.53;8.27;;;;;;;;;;4975797;28;20205;-78
2021/07/28 08:05:33;;;;;;;9.37;8.33;;;;;;;;;;4993156;28;20241;-79
2021/07/28 08:08:00;;;;;;;11.90;8.63;;;;;;;;;;4975990;28;20202;-78
2021/07/28 08:10:26;;;;;;;9.67;8.27;;;;;;;;;;4993260;28;20674;-78
2021/07/28 08:12:53;;;;;;;8.60;7.90;;;;;;;;;;4993671;28;20673;-79
2021/07/28 08:15:21;;;;;;;9.03;7.60;;;;;;;;;;4975941;28;20650;-78
2021/07/28 08:17:52;;;;;;;11.37;7.73;;;;;;;;;;4992800;28;20245;-79
2021/07/28 08:20:18;;;;;;;8.40;7.60;;;;;;;;;;4992932;28;20248;-79
2021/07/28 08:22:45;;;;;;;9.17;7.77;;;;;;;;;;4992633;28;20670;-78
2021/07/28 08:25:13;;;;;;;8.60;7.53;;;;;;;;;;4975698;28;20206;-79
2021/07/28 08:27:39;;;;;;;9.23;7.73;;;;;;;;;;4978485;28;20210;-79
2021/07/28 08:30:13;;;;;;;8.10;7.10;;;;;;;;;;4979003;28;20218;-79
2021/07/28 08:32:41;;;;;;;8.43;7.63;;;;;;;;;;4996540;28;20182;-79
2021/07/28 08:35:09;;;;;;;8.40;7.53;;;;;;;;;;4979066;28;20194;-79
2021/07/28 08:37:39;;;;;;;8.60;7.73;;;;;;;;;;4979060;28;20252;-79
2021/07/28 08:40:08;;;;;;;8.17;7.37;;;;;;;;;;4996277;28;20205;-79
2021/07/28 08:42:35;;;;;;;7.57;6.90;;;;;;;;;;4996304;28;20210;-78
2021/07/28 08:45:04;;;;;;;8.43;7.10;;;;;;;;;;4978746;28;20233;-79
2021/07/28 08:47:30;;;;;;;7.93;7.15;;;;;;;;;;4995968;28;20257;-80
2021/07/28 08:49:58;;;;;;;8.00;7.30;;;;;;;;;;4978960;28;20676;-78
2021/07/28 08:52:26;;;;;;;7.50;6.90;;;;;;;;;;4996270;28;20614;-79
2021/07/28 08:54:53;;;;;;;8.43;7.07;;;;;;;;;;4995738;28;20686;-79
2021/07/28 08:57:20;;;;;;;7.85;7.05;;;;;;;;;;4995516;28;20686;-78
2021/07/28 08:59:47;;;;;;;7.57;6.70;;;;;;;;;;4978681;28;20245;-78
2021/07/28 09:02:15;;;;;;;8.02;7.22;;;;;;;;;;4995624;28;20241;-79
2021/07/28 09:04:45;;;;;;;7.70;7.00;;;;;;;;;;4991999;28;20553;-79
2021/07/28 09:07:16;;;;;;;7.15;6.47;;;;;;;;;;5015434;28;20240;-79
2021/07/28 09:09:51;;;;;;;7.00;6.30;;;;;;;;;;4997994;28;20244;-79
2021/07/28 09:12:21;;;;;;;8.15;6.80;;;;;;;;;;5015292;28;20185;-79
2021/07/28 09:14:51;;;;;;;7.43;6.72;;;;;;;;;;5015774;28;20582;-79
2021/07/28 09:17:22;;;;;;;6.97;6.00;;;;;;;;;;4997900;28;20228;-78
2021/07/28 09:19:51;;;;;;;7.75;6.50;;;;;;;;;;4981864;28;20243;-80
2021/07/28 09:22:19;;;;;;;7.03;6.35;;;;;;;;;;4997746;28;20197;-80
2021/07/28 09:25:04;;;;;;;7.07;6.47;;;;;;;;;;4997626;28;20221;-79
2021/07/28 09:27:41;;;;;;;7.97;6.28;;;;;;;;;;5014924;28;20611;-80
2021/07/28 09:30:11;;;;;;;6.53;6.00;;;;;;;;;;5014657;28;20597;-78
2021/07/28 09:32:54;;;;;;;6.57;6.05;;;;;;;;;;5013627;28;20220;-78
2021/07/28 09:35:42;;;;;;;6.93;6.22;;;;;;;;;;5015070;28;20562;-78
2021/07/28 09:38:10;;;;;;;7.30;6.55;;;;;;;;;;5013788;28;20264;-81
2021/07/28 09:40:37;;;;;;;6.65;6.05;;;;;;;;;;4996483;28;20197;-79
2021/07/28 09:43:04;;;;;;;7.63;6.82;;;;;;;;;;4997210;28;20197;-80
2021/07/28 09:45:30;;;;;;;6.57;5.97;;;;;;;;;;4997150;28;20216;-78
2021/07/28 09:47:57;;;;;;;7.05;6.13;;;;;;;;;;5013127;28;20279;-79
2021/07/28 09:50:26;;;;;;;7.25;5.93;;;;;;;;;;4996909;28;20253;-79
2021/07/28 09:53:06;;;;;;;6.00;5.47;;;;;;;;;;4996873;28;20232;-80
2021/07/28 09:55:35;;;;;;;10.13;6.07;;;;;;;;;;5014039;28;20208;-80
2021/07/28 09:58:04;;;;;;;6.78;6.15;;;;;;;;;;4996839;28;20197;-79
2021/07/28 10:00:31;;;;;;;6.57;5.72;;;;;;;;;;5013436;28;20189;-78
2021/07/28 10:03:00;;;;;;;5.93;5.43;;;;;;;;;;4996381;28;20209;-79
2021/07/28 10:05:28;;;;;;;8.18;5.60;;;;;;;;;;5013193;28;20201;-79
2021/07/28 10:07:57;;;;;;;6.05;5.45;;;;;;;;;;4996361;28;20731;-81
2021/07/28 10:10:24;;;;;;;6.57;5.72;;;;;;;;;;4996657;28;20304;-79
2021/07/28 10:12:52;;;;;;;5.93;5.45;;;;;;;;;;4996627;28;20193;-80
2021/07/28 10:15:19;;;;;;;8.50;5.85;;;;;;;;;;5014192;28;20668;-78
2021/07/28 10:17:46;;;;;;;6.95;5.60;;;;;;;;;;5014427;28;20239;-78
2021/07/28 10:20:15;;;;;;;5.65;5.15;;;;;;;;;;4996470;28;20204;-77
2021/07/28 10:22:43;;;;;;;5.60;4.55;;;;;;;;;;5013774;28;20208;-78
2021/07/28 10:25:13;;;;;;;5.30;4.90;;;;;;;;;;4996623;28;20541;-78
2021/07/28 10:27:41;;;;;;;5.70;5.15;;;;;;;;;;4995862;28;20657;-78
2021/07/28 10:30:10;;;;;;;5.57;5.00;;;;;;;;;;4996194;28;20248;-78
2021/07/28 10:32:37;;;;;;;7.10;5.10;;;;;;;;;;5013885;28;20216;-78
2021/07/28 10:35:21;;;;;;;5.82;4.97;;;;;;;;;;5012560;28;21115;-80
2021/07/28 10:37:48;;;;;;;7.18;5.35;;;;;;;;;;4995966;28;20618;-79
2021/07/28 10:40:31;;;;;;;7.20;5.15;;;;;;;;;;4996288;28;20200;-79
2021/07/28 10:43:02;;;;;;;5.07;4.68;;;;;;;;;;4995460;28;20196;-79
2021/07/28 10:45:51;;;;;;;7.45;4.90;;;;;;;;;;4996052;28;20557;-79
2021/07/28 10:48:33;;;;;;;5.25;4.75;;;;;;;;;;4985513;28;20237;-78
2021/07/28 10:51:00;;;;;;;6.28;5.10;;;;;;;;;;4993941;28;20624;-79
2021/07/28 10:53:42;;;;;;;5.07;4.53;;;;;;;;;;4976602;28;20202;-79
2021/07/28 10:56:12;;;;;;;4.82;4.40;;;;;;;;;;4976201;28;20272;-79
2021/07/28 10:58:39;;;;;;;4.90;4.40;;;;;;;;;;4994210;28;20623;-80
2021/07/28 11:01:07;;;;;;;4.88;4.20;;;;;;;;;;4976395;28;20229;-79
2021/07/28 11:03:37;;;;;;;4.85;4.38;;;;;;;;;;4976347;28;20206;-79
2021/07/28 11:06:15;;;;;;;4.88;4.45;;;;;;;;;;4976779;28;20248;-80
2021/07/28 11:08:42;;;;;;;5.90;4.55;;;;;;;;;;4975819;28;20201;-78
2021/07/28 11:11:09;;;;;;;5.07;4.65;;;;;;;;;;4976277;28;20622;-79
2021/07/28 11:13:36;;;;;;;5.88;4.47;;;;;;;;;;4994097;28;20541;-77
2021/07/28 11:16:04;;;;;;;5.38;4.43;;;;;;;;;;4993901;28;20638;-78
2021/07/28 11:18:33;;;;;;;5.10;4.30;;;;;;;;;;4994238;28;20194;-78
2021/07/28 11:21:11;;;;;;;4.88;4.57;;;;;;;;;;4993763;28;20653;-78
2021/07/28 11:23:40;;;;;;;6.00;4.72;;;;;;;;;;4976233;28;20240;-79
2021/07/28 11:26:13;;;;;;;4.70;4.28;;;;;;;;;;4992333;28;20201;-78
2021/07/28 11:28:40;;;;;;;4.75;4.07;;;;;;;;;;4975902;28;20202;-78
2021/07/28 11:31:08;;;;;;;8.23;4.57;;;;;;;;;;4975970;28;20276;-79
2021/07/28 11:33:36;;;;;;;7.50;4.18;;;;;;;;;;4975991;28;20260;-78
2021/07/28 11:36:03;;;;;;;5.63;3.97;;;;;;;;;;4976017;28;20198;-79
2021/07/28 11:38:33;;;;;;;5.22;4.00;;;;;;;;;;4993285;28;20213;-79
2021/07/28 11:41:01;;;;;;;5.38;4.38;;;;;;;;;;4992985;28;20574;-79
2021/07/28 11:43:28;;;;;;;4.22;3.90;;;;;;;;;;4993533;28;20218;-78
2021/07/28 11:45:57;;;;;;;5.22;4.00;;;;;;;;;;4991827;28;20256;-78
2021/07/28 11:48:28;;;;;;;3.92;3.63;;;;;;;;;;4993096;28;20283;-79
2021/07/28 11:50:56;;;;;;;4.05;3.75;;;;;;;;;;5013055;28;20237;-78
2021/07/28 11:53:23;;;;;;;4.00;3.72;;;;;;;;;;4995449;28;20204;-79
2021/07/28 11:55:50;;;;;;;3.97;3.65;;;;;;;;;;4995364;28;20239;-78
2021/07/28 11:58:17;;;;;;;5.63;3.85;;;;;;;;;;5012710;28;20727;-83
2021/07/28 12:00:46;;;;;;;3.88;3.58;;;;;;;;;;5014790;28;20193;-81
2021/07/28 12:03:24;;;;;;;3.80;3.38;;;;;;;;;;5017136;28;20177;-79
2021/07/28 12:06:00;;;;;;;3.70;3.40;;;;;;;;;;4998898;28;20212;-79
2021/07/28 12:08:30;;;;;;;3.42;2.90;;;;;;;;;;4998818;28;20692;-79
2021/07/28 12:11:06;;;;;;;2.78;2.58;;;;;;;;;;5016144;28;20267;-79
2021/07/28 12:13:40;;;;;;;3.15;2.88;;;;;;;;;;5015681;28;20229;-79
2021/07/28 12:16:07;;;;;;;2.92;2.72;;;;;;;;;;4998955;28;20193;-79
2021/07/28 12:18:40;;;;;;;2.67;2.50;;;;;;;;;;5016285;28;20221;-80
2021/07/28 12:21:08;;;;;;;3.20;3.03;;;;;;;;;;4998637;28;20189;-80
2021/07/28 12:23:35;;;;;;;3.10;2.60;;;;;;;;;;4998687;28;20280;-80
2021/07/28 12:26:02;;;;;;;2.97;2.78;;;;;;;;;;5016051;28;20587;-79
2021/07/28 12:28:46;;;;;;;3.33;3.03;;;;;;;;;;4998172;28;20232;-79
2021/07/28 12:31:26;;;;;;;6.03;3.20;;;;;;;;;;5014862;28;20578;-80
2021/07/28 12:33:53;;;;;;;4.38;2.65;;;;;;;;;;5016054;28;20208;-80
2021/07/28 12:36:28;;;;;;;3.35;3.05;;;;;;;;;;4998505;28;20588;-79
2021/07/28 12:38:57;;;;;;;3.75;3.35;;;;;;;;;;4998356;28;20200;-79
2021/07/28 12:41:24;;;;;;;3.40;3.10;;;;;;;;;;4998059;28;20616;-79
2021/07/28 12:43:52;;;;;;;3.40;3.17;;;;;;;;;;5015774;28;20664;-80
2021/07/28 12:46:18;;;;;;;3.25;3.00;;;;;;;;;;5015221;28;20240;-79
2021/07/28 12:48:45;;;;;;;3.60;3.40;;;;;;;;;;5015629;28;20225;-80
2021/07/28 12:51:13;;;;;;;3.65;3.30;;;;;;;;;;4997980;28;20285;-80
2021/07/28 12:53:42;;;;;;;3.10;2.90;;;;;;;;;;4997887;28;20586;-79
2021/07/28 12:56:08;;;;;;;3.25;3.10;;;;;;;;;;5014256;28;20560;-80
2021/07/28 12:58:35;;;;;;;3.80;3.50;;;;;;;;;;4997937;28;20197;-80
2021/07/28 13:01:03;;;;;;;3.55;3.25;;;;;;;;;;5015196;28;20695;-79
2021/07/28 13:03:30;;;;;;;5.05;3.58;;;;;;;;;;5014112;28;20652;-86
2021/07/28 13:06:03;;;;;;;2.92;2.72;;;;;;;;;;5014757;28;20236;-77
2021/07/28 13:08:30;;;;;;;3.35;3.15;;;;;;;;;;4997765;28;20236;-79
2021/07/28 13:10:58;;;;;;;3.22;3.03;;;;;;;;;;4997467;28;20256;-78
2021/07/28 13:13:25;;;;;;;3.10;2.90;;;;;;;;;;5013613;28;20197;-79
2021/07/28 13:15:54;;;;;;;4.45;3.20;;;;;;;;;;4997823;28;20228;-78
2021/07/28 13:18:22;;;;;;;4.97;3.28;;;;;;;;;;4997852;28;20197;-78
2021/07/28 13:20:48;;;;;;;7.85;2.80;;;;;;;;;;5014840;28;20237;-78
2021/07/28 13:23:16;;;;;;;7.38;3.13;;;;;;;;;;4997633;28;20243;-78
2021/07/28 13:25:43;;;;;;;3.95;2.83;;;;;;;;;;4997698;28;20201;-78
2021/07/28 13:28:12;;;;;;;2.95;2.75;;;;;;;;;;4996620;28;20283;-78
2021/07/28 13:30:39;;;;;;;4.35;2.35;;;;;;;;;;5013662;28;20685;-78
2021/07/28 13:33:08;;;;;;;2.30;2.10;;;;;;;;;;5014888;28;20958;-78
2021/07/28 13:35:35;;;;;;;2.47;1.65;;;;;;;;;;5013362;28;20205;-77
2021/07/28 13:38:03;;;;;;;5.60;2.08;;;;;;;;;;5013809;28;20192;-77
2021/07/28 13:40:30;;;;;;;4.07;1.92;;;;;;;;;;4997221;28;20204;-78
2021/07/28 13:43:00;;;;;;;3.33;1.85;;;;;;;;;;4996759;28;20751;-78
2021/07/28 13:45:28;;;;;;;2.20;1.92;;;;;;;;;;5014923;28;20212;-78
2021/07/28 13:47:55;;;;;;;2.58;2.38;;;;;;;;;;5013881;28;20256;-77
2021/07/28 13:50:24;;;;;;;2.58;2.38;;;;;;;;;;5013124;28;20287;-78
2021/07/28 13:52:51;;;;;;;2.40;2.30;;;;;;;;;;5014403;28;20684;-77
2021/07/28 13:55:19;;;;;;;2.65;2.50;;;;;;;;;;4996842;28;20657;-78
2021/07/28 13:57:45;;;;;;;3.25;2.50;;;;;;;;;;5013950;28;20747;-78
2021/07/28 14:00:14;;;;;;;2.20;2.00;;;;;;;;;;4996614;28;20625;-78
2021/07/28 14:02:42;;;;;;;2.13;1.73;;;;;;;;;;5013789;28;20661;-77
2021/07/28 14:05:09;;;;;;;1.80;1.70;;;;;;;;;;4997056;28;20205;-78
2021/07/28 14:07:36;;;;;;;2.95;1.70;;;;;;;;;;5014282;28;20216;-78
2021/07/28 14:10:03;;;;;;;2.17;1.90;;;;;;;;;;4996823;28;20231;-77
2021/07/28 14:12:30;;;;;;;2.65;1.88;;;;;;;;;;4996331;28;20236;-78
2021/07/28 14:14:59;;;;;;;1.77;1.70;;;;;;;;;;4996760;28;20193;-78
2021/07/28 14:17:26;;;;;;;2.15;1.60;;;;;;;;;;5014800;28;20596;-78
2021/07/28 14:19:56;;;;;;;2.72;2.00;;;;;;;;;;4996435;28;20546;-78
2021/07/28 14:22:22;;;;;;;1.70;1.70;;;;;;;;;;5013938;28;20243;-78
2021/07/28 14:24:51;;;;;;;3.78;1.98;;;;;;;;;;4996438;28;20588;-80
2021/07/28 14:27:18;;;;;;;1.73;1.63;;;;;;;;;;5014280;28;20204;-80
2021/07/28 14:29:46;;;;;;;2.15;1.60;;;;;;;;;;5013091;28;20204;-80
2021/07/28 14:32:13;;;;;;;1.17;1.17;;;;;;;;;;5014190;28;20244;-79
2021/07/28 14:34:40;;;;;;;2.83;0.93;;;;;;;;;;4996362;28;20209;-80
2021/07/28 14:37:08;;;;;;;1.02;1.02;;;;;;;;;;5014143;28;20205;-79
2021/07/28 14:39:35;;;;;;;1.10;1.10;;;;;;;;;;4995893;28;20236;-79
2021/07/28 14:42:02;;;;;;;1.25;1.23;;;;;;;;;;4996268;28;20243;-82
2021/07/28 14:44:29;;;;;;;1.15;1.15;;;;;;;;;;5013485;28;20738;-78
2021/07/28 14:46:56;;;;;;;1.08;1.08;;;;;;;;;;5013249;28;20220;-80
2021/07/28 14:49:24;;;;;;;1.17;1.17;;;;;;;;;;4996174;28;20271;-81
2021/07/28 14:51:54;;;;;;;1.40;1.30;;;;;;;;;;4996082;28;20598;-82